createdAt,value
2019-04-16T09:59:20.216Z,3.57
2019-04-16T10:03:42.609Z,3.62
2019-04-16T10:07:58.612Z,3.63
2019-04-16T10:12:07.742Z,3.64
2019-04-16T10:16:13.532Z,3.64
2019-04-16T10:20:26.954Z,3.65
2019-04-16T10:24:36.544Z,3.65
2019-04-16T10:29:21.443Z,3.65
2019-04-16T10:33:27.676Z,3.66
2019-04-16T10:37:34.452Z,3.66
2019-04-16T10:41:48.228Z,3.66
2019-04-16T10:48:11.781Z,3.67
2019-04-16T10:52:36.374Z,3.68
2019-04-16T10:59:19.402Z,3.69
2019-04-16T11:03:54.040Z,3.68
2019-04-16T11:09:07.446Z,3.70
2019-04-16T11:13:17.013Z,3.71
2019-04-16T11:17:36.822Z,3.71
2019-04-16T11:21:41.369Z,3.72
2019-04-16T11:25:47.477Z,3.72
2019-04-16T11:29:53.002Z,3.73
2019-04-16T11:33:56.988Z,3.74
2019-04-16T11:38:08.759Z,3.74
2019-04-16T11:46:00.790Z,3.75
2019-04-16T11:50:00.523Z,3.78
2019-04-16T11:54:13.572Z,3.78
2019-04-16T11:58:22.943Z,3.79
2019-04-16T12:02:45.696Z,3.81
2019-04-16T12:07:18.492Z,3.82
2019-04-16T12:11:46.960Z,3.84
2019-04-16T12:16:25.416Z,3.84
2019-04-16T12:20:51.072Z,3.86
2019-04-16T12:25:12.378Z,3.86
2019-04-16T12:30:15.778Z,3.88
2019-04-16T12:34:51.067Z,3.89
2019-04-16T12:43:28.520Z,3.90
2019-04-16T12:47:46.656Z,3.90
2019-04-16T12:52:17.284Z,3.91
2019-04-16T12:57:19.540Z,3.92
2019-04-16T13:02:00.120Z,3.94
2019-04-16T13:06:55.311Z,3.94
2019-04-16T13:11:19.224Z,3.95
2019-04-16T13:19:34.707Z,3.96
2019-04-16T13:24:37.656Z,3.97
2019-04-16T13:32:49.719Z,3.99
2019-04-16T13:36:51.973Z,4.00
2019-04-16T13:41:07.917Z,4.01
2019-04-16T13:45:25.495Z,4.02
2019-04-16T13:49:41.409Z,4.03
2019-04-16T13:54:17.461Z,4.02
2019-04-16T13:59:30.962Z,4.06
2019-04-16T14:04:17.555Z,4.06
2019-04-16T14:08:22.195Z,4.06
2019-04-16T14:12:41.067Z,4.07
2019-04-16T14:16:46.139Z,4.07
2019-04-16T14:20:50.483Z,4.07
2019-04-16T14:24:58.759Z,4.09
2019-04-16T14:29:09.388Z,4.09
2019-04-16T14:33:15.288Z,4.11
2019-04-16T14:38:28.487Z,4.11
2019-04-16T14:43:19.581Z,4.11
2019-04-16T14:47:43.524Z,4.12
2019-04-16T14:51:47.928Z,4.13
2019-04-16T14:56:00.195Z,4.13
2019-04-16T15:00:27.071Z,4.14
2019-04-16T15:09:10.156Z,4.17
2019-04-16T15:13:38.396Z,4.17
2019-04-16T15:18:14.143Z,4.17
2019-04-16T15:23:06.764Z,4.18
2019-04-16T15:27:58.071Z,4.18
2019-04-16T15:32:52.115Z,4.18
2019-04-16T15:37:50.731Z,4.15
2019-04-16T15:42:19.640Z,4.15
2019-04-16T15:47:23.963Z,4.14
2019-04-16T15:52:33.427Z,4.13
2019-04-16T15:57:07.841Z,4.13
2019-04-16T16:01:51.813Z,4.13
2019-04-16T16:06:37.032Z,4.13
2019-04-16T16:11:15.896Z,4.13
2019-04-16T16:16:10.780Z,4.12
2019-04-16T16:20:20.475Z,4.12
2019-04-16T16:24:25.420Z,4.13
2019-04-16T16:28:29.355Z,4.12
2019-04-16T16:32:40.884Z,4.12
2019-04-16T16:36:46.585Z,4.12
2019-04-16T16:40:56.744Z,4.12
2019-04-16T16:45:09.438Z,4.12
2019-04-16T16:49:18.775Z,4.12
2019-04-16T16:53:31.453Z,4.11
2019-04-16T16:58:02.297Z,4.11
2019-04-16T17:02:42.315Z,4.11
2019-04-16T17:07:41.103Z,4.12
2019-04-16T17:12:08.019Z,4.11
2019-04-16T17:16:14.377Z,4.11
2019-04-16T17:20:32.184Z,4.11
2019-04-16T17:24:52.284Z,4.11
2019-04-16T17:28:54.501Z,4.11
2019-04-16T17:32:58.583Z,4.11
2019-04-16T17:37:03.001Z,4.11
2019-04-16T17:43:02.800Z,4.11
2019-04-16T17:47:32.174Z,4.09
2019-04-16T17:52:13.695Z,4.10
2019-04-16T17:58:49.864Z,4.09
2019-04-16T18:03:04.028Z,4.10
2019-04-16T18:08:10.123Z,4.09
2019-04-16T18:13:37.337Z,4.09
2019-04-16T18:18:05.634Z,4.09
2019-04-16T18:23:04.127Z,4.09
2019-04-16T18:27:44.075Z,4.09
2019-04-16T18:37:43.287Z,4.08
2019-04-16T18:42:38.391Z,4.08
2019-04-16T18:47:27.732Z,4.08
2019-04-16T18:52:17.943Z,4.09
2019-04-16T18:56:19.909Z,4.09
2019-04-16T19:00:28.544Z,4.08
2019-04-16T19:04:58.072Z,4.08
2019-04-16T19:09:01.184Z,4.08
2019-04-16T19:13:13.668Z,4.08
2019-04-16T19:23:13.799Z,4.08
2019-04-16T19:27:17.391Z,4.07
2019-04-16T19:31:23.054Z,4.07
2019-04-16T19:35:30.128Z,4.07
2019-04-16T19:39:33.084Z,4.07
2019-04-16T19:43:44.060Z,4.08
2019-04-16T19:47:45.876Z,4.08
2019-04-16T19:52:07.568Z,4.07
2019-04-16T19:57:58.207Z,4.07
2019-04-16T20:02:02.376Z,4.07
2019-04-16T20:06:06.436Z,4.07
2019-04-16T20:11:09.084Z,4.07
2019-04-16T20:15:13.859Z,4.07
2019-04-16T20:19:15.572Z,4.07
2019-04-16T20:25:14.990Z,4.07
2019-04-16T20:29:12.872Z,4.07
2019-04-16T20:33:38.207Z,4.07
2019-04-16T20:37:46.256Z,4.07
2019-04-16T20:42:00.126Z,4.07
2019-04-16T20:46:04.146Z,4.07
2019-04-16T20:50:22.551Z,4.07
2019-04-16T20:55:25.347Z,4.07
2019-04-16T20:59:51.915Z,4.06
2019-04-16T21:07:43.797Z,4.07
2019-04-16T21:11:44.319Z,4.06
2019-04-16T21:17:42.803Z,4.06
2019-04-16T21:21:39.150Z,4.06
2019-04-16T21:25:50.128Z,4.05
2019-04-16T21:30:02.995Z,4.06
2019-04-16T21:34:31.831Z,4.06
2019-04-16T21:41:01.504Z,4.06
2019-04-16T21:44:59.268Z,4.06
2019-04-16T21:56:56.360Z,4.05
2019-04-16T22:04:42.629Z,4.05
2019-04-16T22:08:44.763Z,4.05
2019-04-16T22:12:55.363Z,4.05
2019-04-16T22:17:26.221Z,4.05
2019-04-16T22:21:25.213Z,4.05
2019-04-16T22:26:27.411Z,4.05
2019-04-16T22:30:36.396Z,4.05
2019-04-16T22:34:40.239Z,4.05
2019-04-16T22:44:34.835Z,4.05
2019-04-16T22:49:22.285Z,4.04
2019-04-16T22:53:29.075Z,4.05
2019-04-16T22:59:27.756Z,4.04
2019-04-16T23:05:22.060Z,4.04
2019-04-16T23:09:23.876Z,4.03
2019-04-16T23:19:12.392Z,4.03
2019-04-16T23:23:26.276Z,4.04
2019-04-16T23:29:23.951Z,4.03
2019-04-16T23:35:16.115Z,4.04
2019-04-16T23:41:16.083Z,4.03
2019-04-16T23:50:23.478Z,4.03
2019-04-16T23:54:59.675Z,4.03
